Terminal Aerodrome Forecast
Issued by NWS

Home | Current Version | Previous Version | Text Only | Print | Product List | Glossary On
Versions: 1 2 3 4 5 6 7 8 9 10 11 12 13 14 15 16 17 18 19 20
000
FTUS44 KLZK 211100
TAFHOT
TAF
KHOT 211120Z 2112/2212 VRB03KT 4SM BR BKN060
      TEMPO 2112/2113 2SM BR
     FM211500 10004KT P6SM BKN060
     FM220300 15006KT P6SM SCT015 BKN050
      TEMPO 2208/2212 4SM BR BKN015=

USA.gov is the U.S. government's official web portal to all federal, state and local government web resources and services.